Time;durP1;ratioP1;P1;durP2;ratioP2;P2;SDS_P1;SDS_P2;PMS_P1;PMS_P2;Temp;Humidity;BMP_temperature;BMP_pressure;BME280_temperature;BME280_humidity;BME280_pressure;Samples;Min_cycle;Max_cycle;Signal;HPM_P1;HPM_P2
2022/09/26 00:03:28;;;;;;;0.20;0.10;;;17.80;99.90;;;;;;26078687;22;20184;-68
2022/09/26 00:13:35;;;;;;;0.20;0.00;;;17.70;99.90;;;;;;26077544;22;20203;-68
2022/09/26 00:23:40;;;;;;;0.20;0.10;;;17.70;99.90;;;;;;26051063;22;20210;-66
2022/09/26 00:33:45;;;;;;;0.20;0.10;;;17.70;99.90;;;;;;26051383;22;20188;-67
2022/09/26 00:43:51;;;;;;;0.20;0.00;;;17.60;99.90;;;;;;26076978;22;20149;-67
2022/09/26 00:53:56;;;;;;;0.20;0.00;;;17.60;99.90;;;;;;26076499;22;20207;-67
2022/09/26 01:04:02;;;;;;;0.20;0.10;;;17.40;99.90;;;;;;26049814;22;20176;-67
2022/09/26 01:14:09;;;;;;;0.20;0.10;;;17.30;99.90;;;;;;26074917;22;20204;-67
2022/09/26 01:24:39;;;;;;;0.20;0.00;;;17.20;99.90;;;;;;26076179;22;20149;-68
2022/09/26 01:34:52;;;;;;;0.20;0.00;;;17.10;99.90;;;;;;26070822;22;20195;-68
2022/09/26 01:45:04;;;;;;;0.20;0.10;;;17.00;99.90;;;;;;26075946;22;20164;-68
2022/09/26 01:55:14;;;;;;;0.20;0.10;;;17.00;99.90;;;;;;26080547;22;20196;-67
2022/09/26 02:05:25;;;;;;;0.20;0.10;;;17.00;99.90;;;;;;26057413;22;20275;-68
2022/09/26 02:15:33;;;;;;;0.20;0.10;;;17.00;99.90;;;;;;26083464;22;20199;-67
2022/09/26 02:25:38;;;;;;;0.20;0.03;;;16.90;99.90;;;;;;26083248;22;20204;-67
2022/09/26 02:35:56;;;;;;;0.20;0.00;;;16.70;99.90;;;;;;26055504;22;20180;-68
2022/09/26 02:46:09;;;;;;;0.20;0.10;;;16.50;99.90;;;;;;26082744;22;20172;-68
2022/09/26 02:56:20;;;;;;;0.20;0.00;;;16.40;99.90;;;;;;26082068;22;20192;-67
2022/09/26 03:06:29;;;;;;;0.20;0.10;;;16.40;99.90;;;;;;26054409;22;20195;-67
2022/09/26 03:16:37;;;;;;;0.20;0.10;;;16.40;99.90;;;;;;26081389;22;20207;-68
2022/09/26 03:26:42;;;;;;;0.20;0.00;;;16.20;99.90;;;;;;26081083;22;20145;-68
2022/09/26 03:36:47;;;;;;;0.20;0.10;;;16.10;99.90;;;;;;26053447;22;20200;-67
2022/09/26 03:46:51;;;;;;;0.20;0.00;;;16.10;99.90;;;;;;26079911;22;20163;-68
2022/09/26 03:56:56;;;;;;;0.20;0.00;;;16.20;99.90;;;;;;26078968;22;20242;-67
2022/09/26 04:07:00;;;;;;;0.20;0.00;;;16.20;99.90;;;;;;26078792;22;20201;-67
2022/09/26 04:17:05;;;;;;;0.20;0.10;;;16.20;99.90;;;;;;26078315;22;20180;-68
2022/09/26 04:27:09;;;;;;;0.20;0.10;;;16.20;99.90;;;;;;26051268;22;20167;-67
2022/09/26 04:37:14;;;;;;;0.20;0.10;;;16.20;99.90;;;;;;26077429;22;20184;-67
2022/09/26 04:47:18;;;;;;;0.20;0.00;;;16.10;99.90;;;;;;26076907;22;20160;-67
2022/09/26 04:57:23;;;;;;;0.20;0.00;;;16.10;99.90;;;;;;26050402;22;20204;-68
2022/09/26 05:07:28;;;;;;;0.20;0.10;;;16.10;99.90;;;;;;26049953;22;20191;-68
2022/09/26 05:17:33;;;;;;;0.20;0.00;;;16.00;99.90;;;;;;26048913;22;20200;-69
2022/09/26 05:27:37;;;;;;;0.20;0.00;;;15.90;99.90;;;;;;26074277;22;20210;-68
2022/09/26 05:37:42;;;;;;;0.20;0.00;;;15.80;99.90;;;;;;26071903;22;20179;-69
2022/09/26 05:47:47;;;;;;;0.20;0.00;;;15.70;99.90;;;;;;26044215;22;20160;-68
2022/09/26 05:57:53;;;;;;;0.20;0.10;;;15.70;99.90;;;;;;26064318;22;20203;-69
2022/09/26 06:07:59;;;;;;;0.20;0.00;;;15.80;99.90;;;;;;26066350;22;20184;-66
2022/09/26 06:18:05;;;;;;;0.20;0.10;;;15.70;99.90;;;;;;26071505;22;20200;-64
2022/09/26 06:28:09;;;;;;;0.20;0.10;;;15.90;99.90;;;;;;26044016;22;20189;-67
2022/09/26 06:38:14;;;;;;;0.20;0.10;;;16.20;99.90;;;;;;26073190;22;20222;-66
2022/09/26 06:48:18;;;;;;;0.20;0.10;;;16.60;99.90;;;;;;26079925;22;20164;-67
2022/09/26 06:58:28;;;;;;;0.20;0.00;;;17.00;99.90;;;;;;26076577;22;20199;-67
2022/09/26 07:08:31;;;;;;;0.20;0.00;;;17.20;99.90;;;;;;26078570;22;20184;-68
2022/09/26 07:18:57;;;;;;;0.20;0.00;;;17.20;99.90;;;;;;26076816;22;20188;-68
2022/09/26 07:29:01;;;;;;;0.20;0.10;;;17.20;99.90;;;;;;26076234;22;20160;-68
2022/09/26 07:39:07;;;;;;;0.20;0.10;;;17.30;99.90;;;;;;26076377;22;20176;-67
2022/09/26 07:59:34;;;;;;;0.20;0.00;;;17.90;99.90;;;;;;26075743;22;20195;-68
2022/09/26 08:09:38;;;;;;;0.20;0.00;;;18.20;99.90;;;;;;26023659;22;20187;-68
2022/09/26 08:19:43;;;;;;;0.20;0.00;;;18.70;99.90;;;;;;26075178;22;20226;-68
2022/09/26 08:29:48;;;;;;;0.20;0.10;;;19.20;99.90;;;;;;26042975;22;20184;-67
2022/09/26 08:39:53;;;;;;;0.20;0.10;;;19.30;99.90;;;;;;26043588;22;20206;-68
2022/09/26 08:50:08;;;;;;;0.20;0.10;;;19.50;99.90;;;;;;26072668;22;20159;-67
2022/09/26 09:00:20;;;;;;;0.20;0.10;;;19.80;99.90;;;;;;26070135;22;20184;-67
2022/09/26 09:10:36;;;;;;;0.20;0.00;;;20.20;99.90;;;;;;26069619;22;20183;-67
2022/09/26 09:20:53;;;;;;;0.20;0.00;;;20.60;99.90;;;;;;26068410;22;20153;-67
2022/09/26 09:31:00;;;;;;;0.20;0.00;;;21.00;99.90;;;;;;26043374;22;20187;-67
2022/09/26 09:41:10;;;;;;;0.20;0.00;;;21.30;99.90;;;;;;26044563;22;20167;-68
2022/09/26 09:51:26;;;;;;;0.20;0.00;;;21.40;99.90;;;;;;26070578;22;20206;-68
2022/09/26 10:01:36;;;;;;;0.20;0.00;;;21.70;99.90;;;;;;26043944;22;20180;-67
2022/09/26 10:11:42;;;;;;;0.20;0.00;;;22.10;99.90;;;;;;26070326;22;20236;-67
2022/09/26 10:21:51;;;;;;;0.20;0.00;;;22.70;99.90;;;;;;26078009;22;20216;-68
2022/09/26 10:31:57;;;;;;;0.20;0.00;;;23.40;99.90;;;;;;26050816;22;20200;-67
2022/09/26 10:42:04;;;;;;;0.20;0.00;;;23.10;99.90;;;;;;26075775;22;20215;-69
2022/09/26 10:52:11;;;;;;;0.20;0.00;;;24.00;99.90;;;;;;26075446;22;20207;-68
2022/09/26 11:02:24;;;;;;;0.20;0.00;;;25.00;99.90;;;;;;26075181;22;20955;-67
2022/09/26 11:12:32;;;;;;;0.20;0.00;;;26.00;99.90;;;;;;26076095;22;20188;-68
2022/09/26 11:22:44;;;;;;;0.20;0.10;;;25.50;99.90;;;;;;26072515;22;20153;-68
2022/09/26 11:32:51;;;;;;;0.20;0.00;;;25.80;99.90;;;;;;26073784;22;20779;-69
2022/09/26 11:43:12;;;;;;;0.20;0.00;;;26.40;99.90;;;;;;26075403;22;20224;-70
2022/09/26 11:53:45;;;;;;;0.20;0.00;;;26.60;99.90;;;;;;26066403;22;20242;-68
2022/09/26 12:04:16;;;;;;;0.20;0.00;;;25.70;99.90;;;;;;26071262;22;20176;-68
2022/09/26 12:14:40;;;;;;;0.20;0.00;;;26.60;99.90;;;;;;26072420;22;20282;-69
2022/09/26 12:24:52;;;;;;;0.20;0.00;;;27.80;99.90;;;;;;26073087;22;20168;-67
2022/09/26 12:35:20;;;;;;;0.20;0.00;;;27.80;99.90;;;;;;26066714;22;20239;-70
2022/09/26 12:45:46;;;;;;;0.20;0.10;;;28.60;99.90;;;;;;26064144;22;20164;-68
2022/09/26 12:56:05;;;;;;;0.20;0.00;;;28.40;99.90;;;;;;26045070;22;20207;-69
2022/09/26 13:06:34;;;;;;;0.20;0.10;;;28.60;99.90;;;;;;26044200;22;20282;-68
2022/09/26 13:16:52;;;;;;;0.20;0.00;;;28.90;99.90;;;;;;26045446;22;20192;-69
2022/09/26 13:27:10;;;;;;;0.20;0.00;;;28.00;99.90;;;;;;26045316;22;20669;-68
2022/09/26 13:37:30;;;;;;;0.20;0.10;;;29.20;99.90;;;;;;26044198;22;20218;-69
2022/09/26 13:47:41;;;;;;;0.20;0.10;;;27.30;99.90;;;;;;26069791;22;20261;-70
2022/09/26 13:57:51;;;;;;;0.20;0.00;;;28.00;99.90;;;;;;26071207;22;20217;-69
2022/09/26 14:18:46;;;;;;;0.20;0.00;;;27.10;99.90;;;;;;26043445;22;20176;-69
2022/09/26 14:28:55;;;;;;;0.20;0.10;;;27.30;99.90;;;;;;26069053;22;20152;-69
2022/09/26 14:39:00;;;;;;;0.20;0.00;;;29.50;99.90;;;;;;26043247;22;20199;-71
2022/09/26 14:49:07;;;;;;;0.20;0.00;;;27.00;99.90;;;;;;26069780;22;20218;-69
2022/09/26 14:59:40;;;;;;;0.20;0.00;;;29.30;99.90;;;;;;25941064;23;20215;-69
2022/09/26 15:09:49;;;;;;;0.20;0.00;;;29.90;99.90;;;;;;25948327;23;20196;-69
2022/09/26 15:19:57;;;;;;;0.20;0.00;;;30.60;99.90;;;;;;25946262;23;20335;-69
2022/09/26 15:30:08;;;;;;;0.20;0.00;;;28.60;99.90;;;;;;25945473;23;20225;-68
2022/09/26 15:40:17;;;;;;;0.20;0.00;;;28.40;99.90;;;;;;25946327;22;20196;-67
2022/09/26 15:50:26;;;;;;;0.20;0.10;;;27.70;99.90;;;;;;25946296;23;20153;-68
2022/09/26 16:00:32;;;;;;;0.20;0.00;;;27.30;99.90;;;;;;25945753;23;20197;-69
2022/09/26 16:10:37;;;;;;;0.20;0.00;;;25.60;99.90;;;;;;25946948;23;20200;-68
2022/09/26 16:20:41;;;;;;;0.20;0.10;;;25.10;99.90;;;;;;25947161;23;20191;-68
2022/09/26 16:31:02;;;;;;;0.20;0.00;;;24.80;99.90;;;;;;25944751;23;20177;-68
2022/09/26 16:41:08;;;;;;;0.20;0.10;;;24.50;99.90;;;;;;25943923;23;20167;-67
2022/09/26 16:51:19;;;;;;;0.20;0.00;;;24.50;99.90;;;;;;25950276;22;20188;-68
2022/09/26 17:11:48;;;;;;;0.20;0.00;;;24.00;99.90;;;;;;26069520;22;20243;-68
2022/09/26 17:21:53;;;;;;;0.20;0.00;;;23.80;99.90;;;;;;26070325;22;20159;-68
2022/09/26 17:31:59;;;;;;;0.20;0.00;;;23.50;99.90;;;;;;26069590;22;20195;-68
2022/09/26 17:42:03;;;;;;;0.20;0.00;;;23.20;99.90;;;;;;26070401;22;20210;-69
2022/09/26 17:52:23;;;;;;;0.20;0.00;;;22.80;99.90;;;;;;26068960;22;20621;-68
2022/09/26 18:02:33;;;;;;;0.20;0.00;;;22.70;99.90;;;;;;26069475;22;20171;-68
2022/09/26 18:12:38;;;;;;;0.20;0.00;;;22.40;99.90;;;;;;26042973;22;20251;-69
2022/09/26 18:22:42;;;;;;;0.20;0.00;;;22.30;99.90;;;;;;26069148;22;20168;-68
2022/09/26 18:32:51;;;;;;;0.20;0.00;;;22.00;99.90;;;;;;26069038;22;20176;-70
2022/09/26 18:42:57;;;;;;;0.20;0.00;;;21.70;99.90;;;;;;26078148;22;20195;-69
2022/09/26 18:53:02;;;;;;;0.20;0.00;;;21.60;99.90;;;;;;26047214;22;20253;-68
2022/09/26 19:03:06;;;;;;;0.20;0.00;;;21.30;99.90;;;;;;26073044;22;20604;-69
2022/09/26 19:13:11;;;;;;;0.20;0.10;;;20.50;99.90;;;;;;26073327;22;20184;-69
2022/09/26 19:23:15;;;;;;;0.20;0.00;;;19.90;99.90;;;;;;26072171;22;20224;-70
2022/09/26 19:33:20;;;;;;;0.20;0.10;;;19.60;99.90;;;;;;26071210;22;20222;-70
2022/09/26 19:43:25;;;;;;;0.20;0.10;;;19.50;99.90;;;;;;26070387;22;20243;-68
2022/09/26 19:53:31;;;;;;;0.20;0.10;;;19.30;99.90;;;;;;26042169;22;20263;-68
2022/09/26 20:03:38;;;;;;;0.20;0.00;;;19.30;99.90;;;;;;26070279;22;20163;-68
2022/09/26 20:24:06;;;;;;;0.20;0.00;;;19.20;99.90;;;;;;26072117;22;20202;-69
2022/09/26 20:34:12;;;;;;;0.20;0.00;;;18.80;99.90;;;;;;26072932;22;20211;-69
2022/09/26 20:44:19;;;;;;;0.20;0.00;;;19.70;99.90;;;;;;26072329;22;20165;-70
2022/09/26 20:54:29;;;;;;;0.20;0.10;;;19.90;99.90;;;;;;26044530;22;20212;-69
2022/09/26 21:04:33;;;;;;;0.20;0.00;;;20.20;99.90;;;;;;26070192;22;20175;-70
2022/09/26 21:14:38;;;;;;;0.20;0.00;;;20.40;99.90;;;;;;26071667;22;20210;-69
2022/09/26 21:24:44;;;;;;;0.20;0.00;;;20.50;99.90;;;;;;26071599;22;20180;-68
2022/09/26 21:35:01;;;;;;;0.20;0.00;;;20.50;99.90;;;;;;26037778;22;20267;-69
2022/09/26 21:45:09;;;;;;;0.20;0.00;;;20.60;99.90;;;;;;26071733;22;20180;-70
2022/09/26 21:55:22;;;;;;;0.20;0.00;;;20.20;99.90;;;;;;26044071;22;20238;-68
2022/09/26 22:05:28;;;;;;;0.20;0.00;;;20.00;99.90;;;;;;26070611;22;20247;-68
2022/09/26 22:15:33;;;;;;;0.20;0.00;;;19.80;99.90;;;;;;26078440;22;20180;-68
2022/09/26 22:25:37;;;;;;;0.20;0.10;;;19.60;99.90;;;;;;26078535;22;20235;-68
2022/09/26 22:35:48;;;;;;;0.20;0.10;;;18.80;99.90;;;;;;26077703;22;20232;-68
2022/09/26 22:45:52;;;;;;;0.20;0.00;;;18.00;99.90;;;;;;26050450;22;20191;-67
2022/09/26 22:56:03;;;;;;;0.20;0.10;;;18.10;99.90;;;;;;26049219;22;20204;-68
2022/09/26 23:06:08;;;;;;;0.20;0.00;;;18.60;99.90;;;;;;26079966;22;20184;-67
2022/09/26 23:16:16;;;;;;;0.20;0.00;;;19.10;99.90;;;;;;26079978;22;20225;-67
2022/09/26 23:26:22;;;;;;;0.20;0.00;;;19.10;99.90;;;;;;26053079;22;20167;-68
2022/09/26 23:36:27;;;;;;;0.20;0.00;;;18.90;99.90;;;;;;26079706;22;20241;-68
2022/09/26 23:46:31;;;;;;;0.20;0.00;;;17.80;99.90;;;;;;26080216;22;20270;-68
2022/09/26 23:56:36;;;;;;;0.20;0.00;;;18.20;99.90;;;;;;26053113;22;20211;-67
